Time;durP1;ratioP1;P1;durP2;ratioP2;P2;SDS_P1;SDS_P2;PMS_P1;PMS_P2;Temp;Humidity;BMP_temperature;BMP_pressure;BME280_temperature;BME280_humidity;BME280_pressure;Samples;Min_cycle;Max_cycle;Signal;HPM_P1;HPM_P2
2022/03/26 00:00:24;;;;;;;39.50;25.73;;;;;;;5.33;nan;103093.31;5092511;28;20036;-60
2022/03/26 00:02:50;;;;;;;39.83;24.05;;;;;;;5.33;nan;103108.09;5108645;28;20426;-59
2022/03/26 00:05:17;;;;;;;38.88;25.73;;;;;;;5.64;nan;103161.13;5092656;28;20032;-58
2022/03/26 00:07:42;;;;;;;41.13;25.73;;;;;;;5.67;nan;103169.03;5092629;28;20459;-59
2022/03/26 00:10:08;;;;;;;38.30;26.13;;;;;;;5.27;nan;103105.31;5091351;28;20028;-59
2022/03/26 00:12:34;;;;;;;39.10;25.75;;;;;;;5.61;nan;103181.06;5092199;28;20486;-59
2022/03/26 00:14:59;;;;;;;42.67;25.33;;;;;;;5.49;nan;103163.34;5092191;28;20081;-60
2022/03/26 00:17:25;;;;;;;38.83;25.05;;;;;;;5.57;nan;103174.88;5108159;28;20032;-59
2022/03/26 00:19:51;;;;;;;42.03;26.65;;;;;;;5.52;nan;103168.66;5108054;28;20424;-60
2022/03/26 00:22:17;;;;;;;43.35;25.75;;;;;;;5.54;nan;103174.81;5092549;28;20039;-59
2022/03/26 00:24:42;;;;;;;40.80;26.63;;;;;;;5.24;nan;103113.97;5092397;28;20032;-59
2022/03/26 00:27:08;;;;;;;36.72;24.90;;;;;;;5.55;nan;103176.56;5092042;28;20036;-59
2022/03/26 00:29:33;;;;;;;42.38;25.73;;;;;;;5.19;nan;103112.97;5092033;28;20040;-59
2022/03/26 00:31:59;;;;;;;42.85;26.63;;;;;;;5.46;nan;103160.66;5091699;28;20036;-59
2022/03/26 00:34:24;;;;;;;43.30;27.17;;;;;;;5.47;nan;103170.28;5091117;28;20054;-59
2022/03/26 00:36:49;;;;;;;41.75;24.95;;;;;;;5.51;nan;103181.69;5090962;28;20028;-58
2022/03/26 00:39:15;;;;;;;49.92;26.48;;;;;;;5.48;nan;103179.88;5092207;28;20036;-58
2022/03/26 00:41:40;;;;;;;38.35;26.15;;;;;;;5.19;nan;103128.63;5092079;28;20029;-58
2022/03/26 00:44:05;;;;;;;38.75;25.88;;;;;;;5.41;nan;103175.34;5091834;28;20423;-58
2022/03/26 00:46:31;;;;;;;40.72;25.48;;;;;;;5.15;nan;103129.38;5090881;28;20473;-58
2022/03/26 00:48:56;;;;;;;44.58;26.45;;;;;;;5.41;nan;103182.28;5092145;28;20101;-58
2022/03/26 00:51:22;;;;;;;40.53;26.23;;;;;;;5.31;nan;103169.84;5092187;28;20058;-59
2022/03/26 00:53:47;;;;;;;46.22;26.88;;;;;;;5.37;nan;103185.69;5090993;28;20391;-58
2022/03/26 00:56:13;;;;;;;46.38;27.92;;;;;;;5.03;nan;103129.94;5090736;28;20048;-59
2022/03/26 00:58:39;;;;;;;42.20;27.08;;;;;;;5.05;nan;103136.09;5091749;28;20032;-59
2022/03/26 01:01:07;;;;;;;42.72;28.00;;;;;;;5.36;nan;103187.41;5107478;28;20423;-60
2022/03/26 01:03:32;;;;;;;45.63;27.52;;;;;;;5.38;nan;103187.44;5090865;28;20039;-59
2022/03/26 01:05:58;;;;;;;41.92;28.35;;;;;;;5.41;nan;103188.41;5090811;28;20392;-59
2022/03/26 01:08:23;;;;;;;48.22;29.20;;;;;;;4.95;nan;103121.03;5091881;28;20522;-59
2022/03/26 01:10:48;;;;;;;44.17;27.67;;;;;;;5.01;nan;103122.94;5073672;28;20480;-58
2022/03/26 01:13:14;;;;;;;47.72;28.13;;;;;;;5.43;nan;103191.06;5091577;28;20032;-59
2022/03/26 01:15:39;;;;;;;45.75;27.38;;;;;;;5.06;nan;103123.91;5091906;28;20028;-59
2022/03/26 01:18:05;;;;;;;42.58;29.33;;;;;;;5.14;nan;103139.81;5091880;28;20043;-60
2022/03/26 01:20:30;;;;;;;45.25;29.75;;;;;;;5.38;nan;103190.03;5091787;28;20052;-59
2022/03/26 01:22:56;;;;;;;44.20;27.70;;;;;;;5.39;nan;103192.72;5107707;28;20373;-59
2022/03/26 01:25:22;;;;;;;44.58;30.02;;;;;;;5.37;nan;103198.75;5107801;28;20028;-59
2022/03/26 01:27:47;;;;;;;54.20;31.08;;;;;;;5.34;nan;103180.38;5091601;28;20028;-58
2022/03/26 01:30:13;;;;;;;44.55;28.75;;;;;;;5.32;nan;103193.38;5090382;28;20028;-60
2022/03/26 01:32:38;;;;;;;51.40;30.73;;;;;;;5.28;nan;103178.50;5090675;28;20093;-60
2022/03/26 01:35:05;;;;;;;46.35;30.92;;;;;;;5.14;nan;103160.69;5090419;28;20032;-60
2022/03/26 01:37:30;;;;;;;50.42;32.33;;;;;;;4.68;nan;103083.75;5091626;28;20036;-60
2022/03/26 01:39:58;;;;;;;49.75;31.27;;;;;;;5.18;nan;103180.78;5091697;28;20039;-59
2022/03/26 01:42:23;;;;;;;50.20;30.45;;;;;;;5.13;nan;103182.41;5107140;28;20047;-59
2022/03/26 01:44:48;;;;;;;46.20;30.55;;;;;;;4.97;nan;103157.59;5093668;28;20040;-60
2022/03/26 01:47:14;;;;;;;48.63;30.98;;;;;;;5.04;nan;103180.44;5094940;28;20058;-60
2022/03/26 01:49:39;;;;;;;47.97;30.48;;;;;;;5.02;nan;103172.53;5095389;28;20040;-60
2022/03/26 01:52:07;;;;;;;45.75;30.10;;;;;;;4.81;nan;103145.00;5094946;28;20035;-60
2022/03/26 01:54:33;;;;;;;50.63;30.98;;;;;;;4.89;nan;103162.63;5094897;28;20028;-59
2022/03/26 01:56:58;;;;;;;50.00;31.88;;;;;;;4.96;nan;103168.91;5110480;28;20031;-59
2022/03/26 01:59:24;;;;;;;50.60;31.65;;;;;;;4.43;nan;103087.44;5093601;28;20032;-60
2022/03/26 02:01:50;;;;;;;48.20;30.65;;;;;;;4.94;nan;103175.78;5093786;28;20039;-60
2022/03/26 02:04:15;;;;;;;53.08;32.00;;;;;;;4.90;nan;103168.72;5094773;28;20032;-60
2022/03/26 02:06:41;;;;;;;53.47;31.55;;;;;;;4.40;nan;103076.00;5094718;28;20036;-61
2022/03/26 02:09:09;;;;;;;48.55;32.95;;;;;;;4.80;nan;103154.53;5093228;28;20062;-59
2022/03/26 02:11:37;;;;;;;47.58;31.55;;;;;;;4.79;nan;103164.91;5094645;28;20043;-60
2022/03/26 02:14:03;;;;;;;50.80;32.25;;;;;;;4.41;nan;103103.84;5094338;28;20038;-59
2022/03/26 02:16:30;;;;;;;49.20;32.05;;;;;;;4.27;nan;103087.81;5094421;28;20118;-60
2022/03/26 02:18:56;;;;;;;58.53;31.58;;;;;;;4.22;nan;103091.13;5094596;28;20476;-60
2022/03/26 02:21:22;;;;;;;51.15;32.40;;;;;;;4.29;nan;103106.13;5093149;28;20038;-59
2022/03/26 02:23:48;;;;;;;49.92;31.08;;;;;;;4.17;nan;103090.13;5110371;28;20032;-60
2022/03/26 02:26:16;;;;;;;55.45;33.63;;;;;;;4.52;nan;103144.16;5092925;28;20513;-60
2022/03/26 02:28:44;;;;;;;56.53;33.00;;;;;;;4.51;nan;103145.91;5094530;28;20495;-59
2022/03/26 02:31:10;;;;;;;52.17;31.83;;;;;;;4.44;nan;103151.75;5094202;28;20028;-59
2022/03/26 02:33:36;;;;;;;53.17;32.40;;;;;;;4.39;nan;103142.91;5094753;28;20024;-58
2022/03/26 02:36:01;;;;;;;55.40;32.05;;;;;;;4.44;nan;103151.75;5109558;28;20024;-59
2022/03/26 02:38:27;;;;;;;52.92;32.65;;;;;;;4.06;nan;103084.56;5094141;28;20039;-59
2022/03/26 02:40:52;;;;;;;62.10;33.53;;;;;;;4.09;nan;103088.97;5093985;28;20132;-59
2022/03/26 02:43:17;;;;;;;54.42;31.58;;;;;;;4.08;nan;103084.63;5094298;28;20036;-59
2022/03/26 02:45:44;;;;;;;51.88;31.63;;;;;;;4.43;nan;103157.84;5092548;28;20115;-60
2022/03/26 02:48:12;;;;;;;52.83;32.10;;;;;;;4.35;nan;103121.94;5092593;28;20043;-59
2022/03/26 02:50:39;;;;;;;58.65;32.40;;;;;;;4.44;nan;103154.38;5093859;28;20032;-60
2022/03/26 02:53:04;;;;;;;51.88;32.67;;;;;;;4.35;nan;103134.97;5092709;28;20043;-59
2022/03/26 02:55:30;;;;;;;50.40;31.70;;;;;;;4.32;nan;103135.75;5093705;28;20031;-59
2022/03/26 02:57:55;;;;;;;51.38;31.55;;;;;;;3.65;nan;103023.41;5092816;28;20040;-59
2022/03/26 03:00:21;;;;;;;51.97;32.10;;;;;;;4.02;nan;103102.69;5093891;28;20369;-59
2022/03/26 03:02:46;;;;;;;58.30;34.47;;;;;;;4.07;nan;103094.16;5093779;28;20055;-60
2022/03/26 03:05:11;;;;;;;53.17;32.78;;;;;;;3.85;nan;103060.50;5093776;28;20064;-59
2022/03/26 03:07:36;;;;;;;55.08;32.55;;;;;;;4.28;nan;103149.53;5093603;28;20036;-60
2022/03/26 03:10:04;;;;;;;55.72;33.25;;;;;;;4.17;nan;103130.09;5093690;28;20036;-58
2022/03/26 03:12:29;;;;;;;51.20;33.05;;;;;;;3.90;nan;103078.03;5093349;28;20059;-58
2022/03/26 03:14:54;;;;;;;57.03;34.78;;;;;;;4.23;nan;103142.44;5093549;28;20056;-59
2022/03/26 03:17:20;;;;;;;55.22;34.85;;;;;;;3.92;nan;103084.16;5093435;28;20533;-58
2022/03/26 03:19:45;;;;;;;56.60;32.65;;;;;;;4.20;nan;103124.09;5109139;28;20044;-59
2022/03/26 03:22:11;;;;;;;53.92;33.03;;;;;;;4.20;nan;103142.34;5108975;28;20056;-59
2022/03/26 03:24:36;;;;;;;62.03;36.05;;;;;;;4.18;nan;103142.28;5093558;28;20392;-58
2022/03/26 03:27:02;;;;;;;59.35;35.10;;;;;;;4.16;nan;103135.25;5093438;28;20039;-59
2022/03/26 03:29:27;;;;;;;60.47;34.90;;;;;;;4.15;nan;103146.50;5108704;28;20055;-59
2022/03/26 03:31:52;;;;;;;54.20;34.22;;;;;;;4.11;nan;103142.06;5093201;28;20506;-60
2022/03/26 03:34:18;;;;;;;63.55;37.30;;;;;;;3.95;nan;103109.41;5093214;28;20040;-59
2022/03/26 03:36:43;;;;;;;59.78;36.00;;;;;;;4.10;nan;103148.09;5092156;28;20105;-59
2022/03/26 03:39:08;;;;;;;60.42;36.78;;;;;;;3.76;nan;103083.66;5092959;28;20553;-60
2022/03/26 03:41:34;;;;;;;71.47;38.15;;;;;;;3.78;nan;103090.66;5091911;28;20059;-60
2022/03/26 03:44:02;;;;;;;59.65;36.78;;;;;;;3.86;nan;103104.81;5091685;28;20070;-59
2022/03/26 03:46:30;;;;;;;69.93;39.90;;;;;;;3.74;nan;103074.88;5092835;28;20032;-60
2022/03/26 03:48:56;;;;;;;66.63;39.25;;;;;;;4.19;nan;103148.38;5092840;28;20463;-60
2022/03/26 03:51:22;;;;;;;75.90;42.42;;;;;;;3.82;nan;103081.25;5092777;28;20063;-59
2022/03/26 03:53:47;;;;;;;73.70;41.10;;;;;;;4.11;nan;103132.53;5093182;28;20366;-59
2022/03/26 03:56:12;;;;;;;82.00;42.95;;;;;;;4.32;nan;103153.13;5092896;28;20039;-58
2022/03/26 03:58:37;;;;;;;72.18;42.53;;;;;;;4.32;nan;103146.16;5092783;28;20036;-60
2022/03/26 04:01:03;;;;;;;78.45;46.28;;;;;;;4.32;nan;103146.16;5092453;28;20065;-59
2022/03/26 04:03:29;;;;;;;79.20;43.70;;;;;;;4.22;nan;103132.84;5092761;28;20040;-59
2022/03/26 04:05:54;;;;;;;79.80;44.28;;;;;;;4.28;nan;103148.66;5091760;28;20031;-59
2022/03/26 04:08:21;;;;;;;84.68;45.03;;;;;;;4.19;nan;103145.78;5092287;28;20074;-58
2022/03/26 04:10:46;;;;;;;90.20;47.88;;;;;;;3.96;nan;103113.81;5092857;28;20271;-59
2022/03/26 04:13:12;;;;;;;85.03;49.50;;;;;;;3.98;nan;103099.09;5092440;28;20055;-59
2022/03/26 04:15:37;;;;;;;88.13;49.30;;;;;;;4.32;nan;103145.31;5092604;28;20420;-59
2022/03/26 04:18:03;;;;;;;92.55;50.72;;;;;;;3.95;nan;103088.56;5091178;28;20073;-60
2022/03/26 04:20:28;;;;;;;90.03;51.55;;;;;;;4.18;nan;103125.75;5090736;28;20043;-60
2022/03/26 04:22:53;;;;;;;93.82;49.53;;;;;;;4.25;nan;103144.25;5090879;28;20403;-59
2022/03/26 04:25:18;;;;;;;97.22;55.13;;;;;;;4.23;nan;103145.03;5092486;28;20035;-59
2022/03/26 04:27:45;;;;;;;98.15;52.10;;;;;;;4.20;nan;103148.44;5092414;28;20040;-59
2022/03/26 04:30:11;;;;;;;95.30;52.42;;;;;;;3.73;nan;103076.63;5107678;28;20476;-59
2022/03/26 04:32:37;;;;;;;94.22;51.83;;;;;;;4.12;nan;103151.63;5092353;28;20456;-58
2022/03/26 04:35:02;;;;;;;98.93;54.22;;;;;;;3.85;nan;103110.84;5092162;28;20038;-59
2022/03/26 04:37:28;;;;;;;95.55;53.15;;;;;;;4.02;nan;103134.84;5091982;28;20055;-59
2022/03/26 04:39:53;;;;;;;102.18;55.60;;;;;;;4.14;nan;103160.41;5092527;28;20085;-59
2022/03/26 04:42:18;;;;;;;96.90;54.33;;;;;;;4.15;nan;103160.44;5107843;28;20040;-59
2022/03/26 04:44:44;;;;;;;102.90;55.63;;;;;;;4.16;nan;103146.56;5090723;28;20028;-59
2022/03/26 04:47:09;;;;;;;109.80;60.20;;;;;;;3.67;nan;103058.22;5092070;28;20389;-59
2022/03/26 04:49:34;;;;;;;110.60;58.50;;;;;;;4.07;nan;103142.78;5107868;28;20127;-59
2022/03/26 04:52:00;;;;;;;109.10;58.67;;;;;;;4.19;nan;103159.69;5090704;28;20024;-60
2022/03/26 04:54:25;;;;;;;114.70;59.22;;;;;;;4.18;nan;103162.25;5092196;28;20044;-59
2022/03/26 04:56:50;;;;;;;112.10;61.15;;;;;;;3.83;nan;103101.22;5091937;28;20044;-60
2022/03/26 04:59:16;;;;;;;109.53;59.42;;;;;;;4.12;nan;103162.94;5092013;28;20040;-59
2022/03/26 05:01:44;;;;;;;118.20;62.08;;;;;;;4.11;nan;103152.47;5092062;28;20043;-59
2022/03/26 05:04:10;;;;;;;115.63;60.45;;;;;;;3.80;nan;103104.63;5091885;28;20043;-60
2022/03/26 05:06:35;;;;;;;115.78;60.78;;;;;;;4.07;nan;103150.59;5107707;28;20032;-59
2022/03/26 05:09:01;;;;;;;107.40;59.30;;;;;;;3.73;nan;103099.19;5091881;28;20077;-59
2022/03/26 05:11:26;;;;;;;107.45;60.00;;;;;;;3.89;nan;103130.97;5091549;28;20116;-59
2022/03/26 05:13:52;;;;;;;117.63;62.42;;;;;;;3.93;nan;103143.25;5073757;28;20396;-60
2022/03/26 05:16:18;;;;;;;111.38;59.53;;;;;;;3.86;nan;103143.00;5091534;28;20040;-58
2022/03/26 05:18:43;;;;;;;110.50;60.33;;;;;;;3.80;nan;103151.50;5095116;28;20028;-58
2022/03/26 05:21:11;;;;;;;112.40;60.15;;;;;;;3.64;nan;103127.53;5095388;28;20075;-59
2022/03/26 05:23:37;;;;;;;115.65;60.65;;;;;;;3.67;nan;103149.38;5095645;28;20488;-59
2022/03/26 05:26:03;;;;;;;114.13;59.35;;;;;;;3.60;nan;103149.97;5095442;28;20028;-59
2022/03/26 05:28:29;;;;;;;110.80;56.53;;;;;;;3.18;nan;103088.72;5095396;28;20468;-59
2022/03/26 05:30:55;;;;;;;114.55;59.60;;;;;;;3.49;nan;103153.06;5095487;28;20158;-59
2022/03/26 05:33:21;;;;;;;111.05;59.88;;;;;;;3.47;nan;103157.34;5077235;28;20040;-60
2022/03/26 05:35:47;;;;;;;108.60;57.97;;;;;;;3.40;nan;103143.25;5095376;28;20032;-59
2022/03/26 05:38:12;;;;;;;104.70;58.33;;;;;;;3.29;nan;103136.78;5095549;28;20107;-60
2022/03/26 05:40:39;;;;;;;107.53;57.88;;;;;;;3.33;nan;103149.94;5095190;28;20404;-60
2022/03/26 05:43:05;;;;;;;114.30;59.22;;;;;;;3.24;nan;103140.97;5093951;28;20032;-59
2022/03/26 05:45:30;;;;;;;111.43;60.15;;;;;;;3.34;nan;103163.84;5095092;28;20471;-59
2022/03/26 05:47:59;;;;;;;113.05;60.55;;;;;;;3.27;nan;103154.06;5095039;28;20118;-59
2022/03/26 05:50:25;;;;;;;109.50;58.13;;;;;;;2.94;nan;103096.56;5095091;28;20036;-60
2022/03/26 05:52:51;;;;;;;121.93;59.20;;;;;;;3.34;nan;103171.66;5094074;28;20039;-60
2022/03/26 05:55:18;;;;;;;116.07;58.95;;;;;;;3.36;nan;103160.47;5095130;28;20452;-59
2022/03/26 05:57:43;;;;;;;113.68;60.80;;;;;;;3.37;nan;103158.75;5095413;28;20111;-60
2022/03/26 06:00:10;;;;;;;117.97;60.72;;;;;;;3.41;nan;103166.69;5094838;28;20140;-59
2022/03/26 06:02:36;;;;;;;113.88;61.08;;;;;;;3.46;nan;103166.88;5094820;28;20085;-59
2022/03/26 06:05:02;;;;;;;111.15;59.88;;;;;;;3.16;nan;103108.56;5094920;28;20044;-61
2022/03/26 06:07:28;;;;;;;108.70;59.00;;;;;;;3.55;nan;103177.59;5094839;28;20111;-59
2022/03/26 06:09:53;;;;;;;112.75;60.70;;;;;;;3.61;nan;103171.72;5094675;28;20119;-59
2022/03/26 06:12:19;;;;;;;118.80;59.72;;;;;;;3.66;nan;103176.22;5093556;28;20040;-59
2022/03/26 06:14:45;;;;;;;117.22;61.33;;;;;;;3.60;nan;103159.50;5093276;28;20400;-60
2022/03/26 06:17:11;;;;;;;111.32;57.97;;;;;;;3.80;nan;103180.16;5093127;28;20495;-60
2022/03/26 06:19:38;;;;;;;103.07;57.47;;;;;;;3.87;nan;103181.25;5094091;28;20150;-60
2022/03/26 06:22:04;;;;;;;119.28;63.78;;;;;;;3.90;nan;103165.72;5093482;28;20111;-59
2022/03/26 06:24:29;;;;;;;112.63;61.72;;;;;;;4.11;nan;103181.16;5094487;28;20036;-59
2022/03/26 06:26:55;;;;;;;108.07;59.15;;;;;;;4.22;nan;103182.34;5094567;28;20038;-58
2022/03/26 06:29:20;;;;;;;108.55;59.33;;;;;;;4.32;nan;103177.47;5093447;28;20490;-60
2022/03/26 06:31:46;;;;;;;106.00;60.63;;;;;;;4.07;nan;103117.63;5110069;28;20040;-59
2022/03/26 06:34:12;;;;;;;119.32;65.43;;;;;;;4.53;nan;103166.78;5094043;28;20039;-58
2022/03/26 06:36:39;;;;;;;110.45;62.33;;;;;;;4.84;nan;103177.28;5092908;28;20039;-59
2022/03/26 06:39:08;;;;;;;106.32;58.25;;;;;;;4.73;nan;103107.38;5076248;28;20107;-59
2022/03/26 06:41:38;;;;;;;101.75;60.53;;;;;;;5.19;nan;103141.69;5094154;28;20024;-59
2022/03/26 06:44:08;;;;;;;103.00;61.95;;;;;;;5.84;nan;103182.50;5094003;28;20476;-60
2022/03/26 06:46:34;;;;;;;104.03;62.92;;;;;;;5.92;nan;103122.63;5094178;28;20036;-59
2022/03/26 06:49:00;;;;;;;99.10;60.80;;;;;;;6.52;nan;103176.28;5093872;28;20044;-59
2022/03/26 06:51:25;;;;;;;97.32;60.22;;;;;;;6.70;nan;103167.94;5093983;28;20523;-59
2022/03/26 06:53:51;;;;;;;97.82;59.97;;;;;;;6.73;nan;103123.50;5093870;28;20020;-58
2022/03/26 06:56:17;;;;;;;94.40;59.70;;;;;;;7.20;nan;103187.25;5093439;28;20503;-59
2022/03/26 06:58:44;;;;;;;100.78;62.20;;;;;;;7.09;nan;103141.66;5093634;28;20024;-60
2022/03/26 07:01:10;;;;;;;99.85;61.95;;;;;;;7.36;nan;103187.53;5092485;28;20062;-59
2022/03/26 07:03:35;;;;;;;98.80;61.60;;;;;;;7.40;nan;103149.19;5092356;28;20049;-60
2022/03/26 07:06:01;;;;;;;97.35;59.70;;;;;;;7.91;nan;103204.19;5092323;28;20196;-59
2022/03/26 07:08:27;;;;;;;95.93;60.53;;;;;;;8.26;nan;103205.63;5075395;28;20036;-59
2022/03/26 07:10:52;;;;;;;89.18;57.35;;;;;;;8.65;nan;103209.69;5093798;28;20114;-60
2022/03/26 07:13:18;;;;;;;94.55;60.15;;;;;;;9.04;nan;103218.97;5093311;28;20048;-59
2022/03/26 07:15:43;;;;;;;85.30;58.83;;;;;;;9.51;nan;103223.84;5093623;28;20040;-59
2022/03/26 07:18:09;;;;;;;86.65;58.58;;;;;;;9.64;nan;103170.50;5093454;28;20048;-58
2022/03/26 07:20:35;;;;;;;83.95;55.67;;;;;;;10.21;nan;103219.22;5093373;28;20428;-59
2022/03/26 07:23:00;;;;;;;83.70;55.58;;;;;;;10.26;nan;103178.00;5092101;28;20146;-59
2022/03/26 07:25:26;;;;;;;83.43;56.95;;;;;;;10.83;nan;103243.28;5092028;28;20451;-58
2022/03/26 07:27:51;;;;;;;82.97;56.25;;;;;;;11.15;nan;103244.25;5093146;28;20028;-60
2022/03/26 07:30:19;;;;;;;78.00;54.85;;;;;;;11.41;nan;103247.00;5093075;28;20146;-59
2022/03/26 07:32:44;;;;;;;77.60;54.28;;;;;;;11.76;nan;103269.94;5092149;28;20039;-59
2022/03/26 07:35:10;;;;;;;76.53;54.45;;;;;;;12.23;nan;103269.94;5091774;28;20024;-59
2022/03/26 07:37:35;;;;;;;80.93;55.25;;;;;;;12.01;nan;103230.38;5093135;28;20059;-60
2022/03/26 07:40:01;;;;;;;80.60;55.78;;;;;;;12.09;nan;103225.94;5093074;28;20047;-60
2022/03/26 07:42:27;;;;;;;79.03;55.72;;;;;;;12.05;nan;103211.03;5091243;28;20028;-60
2022/03/26 07:44:53;;;;;;;77.20;54.20;;;;;;;12.80;nan;103294.50;5091085;28;20036;-59
2022/03/26 07:47:18;;;;;;;71.25;51.33;;;;;;;12.75;nan;103228.47;5091660;28;20086;-59
2022/03/26 07:49:44;;;;;;;75.50;52.10;;;;;;;13.16;nan;103299.72;5092973;28;20032;-60
2022/03/26 07:52:09;;;;;;;71.18;50.70;;;;;;;13.16;nan;103293.56;5093043;28;20380;-60
2022/03/26 07:54:34;;;;;;;69.95;51.72;;;;;;;13.37;nan;103304.00;5092787;28;20039;-60
2022/03/26 07:57:00;;;;;;;67.80;50.22;;;;;;;13.74;nan;103294.13;5092543;28;20453;-61
2022/03/26 07:59:25;;;;;;;69.88;50.22;;;;;;;14.21;nan;103301.69;5091300;28;20051;-59
2022/03/26 08:01:50;;;;;;;68.65;48.53;;;;;;;14.09;nan;103265.59;5091533;28;20090;-59
2022/03/26 08:04:16;;;;;;;61.03;44.33;;;;;;;14.70;nan;103320.69;5092353;28;20044;-60
2022/03/26 08:06:41;;;;;;;64.65;46.55;;;;;;;14.67;nan;103286.25;5092632;28;20050;-59
2022/03/26 08:09:06;;;;;;;69.35;49.38;;;;;;;;;;5092119;28;20062;-60
2022/03/26 08:11:31;;;;;;;67.23;47.80;;;;;;;;;;5092751;28;20388;-60
2022/03/26 08:13:57;;;;;;;63.07;46.80;;;;;;;;;;5092163;28;20448;-59
2022/03/26 08:16:22;;;;;;;58.72;45.13;;;;;;;;;;5092550;28;20039;-59
2022/03/26 08:18:48;;;;;;;62.95;46.00;;;;;;;15.04;nan;103308.81;5092498;28;20079;-59
2022/03/26 08:21:15;;;;;;;64.25;47.38;;;;;;;15.04;nan;103264.59;5090861;28;20087;-59
2022/03/26 08:23:40;;;;;;;57.72;45.53;;;;;;;15.59;nan;103262.09;5092186;28;20481;-59
2022/03/26 08:26:26;;;;;;;62.17;45.58;;;;;;;16.52;nan;103333.19;5091013;28;20034;-60
2022/03/26 08:28:54;;;;;;;61.25;45.10;;;;;;;16.71;nan;103309.84;5091129;28;20408;-59
2022/03/26 08:31:20;;;;;;;61.63;45.53;;;;;;;16.95;nan;103338.66;5092443;28;20118;-59
2022/03/26 08:33:46;;;;;;;63.25;44.63;;;;;;;16.91;nan;103341.38;5092194;28;20473;-59
2022/03/26 08:36:12;;;;;;;60.83;43.28;;;;;;;16.84;nan;103356.59;5092161;28;20400;-59
2022/03/26 08:38:38;;;;;;;57.35;42.45;;;;;;;16.86;nan;103357.44;5091047;28;20043;-59
2022/03/26 08:41:04;;;;;;;61.83;44.55;;;;;;;16.97;nan;103317.31;5090657;28;20069;-59
2022/03/26 08:43:30;;;;;;;60.75;44.22;;;;;;;17.39;nan;103343.94;5092257;28;20043;-59
2022/03/26 08:45:55;;;;;;;57.80;43.42;;;;;;;17.77;nan;103345.81;5090751;28;20055;-59
2022/03/26 08:48:20;;;;;;;60.05;41.97;;;;;;;17.94;nan;103346.28;5091968;28;20055;-59
2022/03/26 08:50:46;;;;;;;59.70;40.88;;;;;;;17.88;nan;103305.56;5091892;28;20063;-60
2022/03/26 08:53:11;;;;;;;58.63;41.88;;;;;;;18.31;nan;103354.25;5076142;28;20035;-60
2022/03/26 08:55:37;;;;;;;56.33;41.53;;;;;;;18.31;nan;103292.06;5095870;28;20424;-60
2022/03/26 08:58:02;;;;;;;58.40;43.28;;;;;;;18.60;nan;103293.97;5094424;28;20032;-59
2022/03/26 09:00:27;;;;;;;58.63;40.40;;;;;;;19.21;nan;103339.38;5095749;28;20024;-60
2022/03/26 09:02:54;;;;;;;55.70;41.58;;;;;;;19.17;nan;103265.66;5094803;28;20028;-60
2022/03/26 09:05:19;;;;;;;50.08;36.35;;;;;;;19.22;nan;103301.09;5096024;28;20486;-61
2022/03/26 09:07:45;;;;;;;49.80;37.33;;;;;;;19.51;nan;103326.94;5095735;28;20044;-61
2022/03/26 09:10:11;;;;;;;50.20;37.25;;;;;;;19.98;nan;103349.53;5095223;28;20040;-59
2022/03/26 09:12:36;;;;;;;50.55;39.40;;;;;;;19.79;nan;103314.47;5095456;28;20149;-58
2022/03/26 09:15:02;;;;;;;50.92;37.70;;;;;;;19.77;nan;103320.78;5094549;28;20403;-60
2022/03/26 09:17:28;;;;;;;48.40;36.10;;;;;;;20.16;nan;103360.50;5094474;28;20081;-60
2022/03/26 09:19:54;;;;;;;49.47;37.60;;;;;;;20.00;nan;103323.59;5095372;28;20048;-60
2022/03/26 09:22:19;;;;;;;45.92;33.17;;;;;;;20.33;nan;103357.31;5095491;28;20376;-60
2022/03/26 09:24:45;;;;;;;46.05;35.00;;;;;;;20.19;nan;103372.91;5095526;28;20036;-60
2022/03/26 09:27:10;;;;;;;47.72;34.13;;;;;;;;;;5094406;28;20063;-60
2022/03/26 09:29:36;;;;;;;46.45;35.60;;;;;;;;;;5095694;28;20035;-60
2022/03/26 09:32:01;;;;;;;48.72;34.53;;;;;;;;;;5095579;28;20092;-60
2022/03/26 09:34:26;;;;;;;40.38;31.92;;;;;;;;;;5095394;28;20036;-61
2022/03/26 09:36:53;;;;;;;43.90;33.33;;;;;;;;;;5095317;28;20423;-60
2022/03/26 09:39:18;;;;;;;43.53;30.90;;;;;;;;;;5094972;28;20286;-59
2022/03/26 09:41:45;;;;;;;42.70;28.60;;;;;;;;;;5095180;28;20027;-60
2022/03/26 09:44:11;;;;;;;39.80;30.60;;;;;;;;;;5095232;28;20103;-60
2022/03/26 09:46:36;;;;;;;36.15;28.77;;;;;;;;;;5095344;28;20117;-59
2022/03/26 09:49:03;;;;;;;37.83;28.10;;;;;;;;;;5095037;28;20082;-59
2022/03/26 09:51:28;;;;;;;35.75;26.58;;;;;;;;;;5095204;28;20036;-60
2022/03/26 09:53:54;;;;;;;35.95;26.42;;;;;;;;;;5094984;28;20020;-60
2022/03/26 09:56:20;;;;;;;30.77;23.90;;;;;;;;;;5094866;28;20031;-59
2022/03/26 09:58:45;;;;;;;31.27;24.50;;;;;;;;;;5095265;28;20020;-59
2022/03/26 10:01:10;;;;;;;30.85;22.42;;;;;;;;;;5095342;28;20135;-59
2022/03/26 10:03:39;;;;;;;19.53;14.50;;;;;;;;;;5093548;28;20028;-60
2022/03/26 10:06:04;;;;;;;19.02;14.63;;;;;;;;;;5094896;28;20292;-60
2022/03/26 10:08:33;;;;;;;19.90;15.85;;;;;;;;;;5094395;28;20532;-60
2022/03/26 10:10:59;;;;;;;19.40;15.27;;;;;;;;;;5094947;28;20028;-59
2022/03/26 10:13:36;;;;;;;15.48;12.77;;;;;;;;;;5094907;28;20036;-60
2022/03/26 10:16:03;;;;;;;21.02;13.77;;;;;;;;;;5093936;28;20039;-61
2022/03/26 10:18:33;;;;;;;18.75;15.00;;;;;;;;;;5094791;28;20399;-59
2022/03/26 10:20:59;;;;;;;20.25;14.98;;;;;;;;;;5109861;27;20054;-60
2022/03/26 10:23:28;;;;;;;21.52;16.35;;;;;;;;;;5100394;28;20054;-60
2022/03/26 10:26:06;;;;;;;26.95;20.15;;;;;;;;;;5095570;28;20040;-60
2022/03/26 10:28:32;;;;;;;31.02;22.17;;;;;;;;;;5106965;28;20448;-60
2022/03/26 10:34:01;;;;;;;41.47;30.10;;;;;;;;;;5094258;28;20476;-60
2022/03/26 10:36:27;;;;;;;42.90;31.00;;;;;;;;;;5093492;28;20036;-62
2022/03/26 10:38:52;;;;;;;43.15;31.50;;;;;;;;;;5093759;28;20040;-63
2022/03/26 10:41:20;;;;;;;45.00;31.90;;;;;;;;;;5093917;28;20541;-62
2022/03/26 10:43:45;;;;;;;46.90;33.25;;;;;;;;;;5093888;28;20291;-64
2022/03/26 10:46:11;;;;;;;46.85;32.65;;;;;;;;;;5093967;28;20089;-62
2022/03/26 10:48:37;;;;;;;39.67;30.63;;;;;;;;;;5092962;28;20028;-62
2022/03/26 10:51:02;;;;;;;44.20;29.80;;;;;;;;;;5109636;28;20409;-62
2022/03/26 10:53:33;;;;;;;41.97;29.27;;;;;;;;;;5112181;28;20051;-62
2022/03/26 10:55:58;;;;;;;;;;;;;;;;;;5113309;28;20023;-61
2022/03/26 10:58:23;;;;;;;43.28;30.15;;;;;;;;;;5113844;28;19918;-62
2022/03/26 11:00:49;;;;;;;44.78;31.05;;;;;;;;;;5112718;28;20032;-63
2022/03/26 11:03:14;;;;;;;43.80;29.73;;;;;;;;;;5107058;28;20139;-63
2022/03/26 11:05:40;;;;;;;45.50;32.45;;;;;;;;;;5104607;28;20107;-62
2022/03/26 11:08:08;;;;;;;41.67;32.28;;;;;;;;;;5093868;28;20085;-63
2022/03/26 11:10:34;;;;;;;49.63;35.45;;;;;;;;;;5112390;28;20497;-63
2022/03/26 11:13:01;;;;;;;46.88;34.30;;;;;;;;;;5109866;28;20028;-62
2022/03/26 11:15:39;;;;;;;51.45;35.40;;;;;;;;;;5092743;28;20453;-63
2022/03/26 11:18:23;;;;;;;44.25;33.35;;;;;;;;;;5093336;28;20036;-61
2022/03/26 11:21:07;;;;;;;45.55;32.50;;;;;;;;;;5109997;28;20093;-62
2022/03/26 11:23:32;;;;;;;42.60;30.52;;;;;;;;;;5112754;28;20063;-62
2022/03/26 11:26:33;;;;;;;45.93;31.37;;;;;;;;;;5113089;28;20108;-62
2022/03/26 11:29:33;;;;;;;46.95;31.20;;;;;;;;;;5049788;28;20037;-63
2022/03/26 11:32:15;;;;;;;50.67;33.53;;;;;;;;;;5099263;28;20035;-62
2022/03/26 11:34:40;;;;;;;46.28;32.58;;;;;;;;;;5112771;28;20495;-63
2022/03/26 11:37:13;;;;;;;44.60;31.07;;;;;;;;;;5112752;28;20039;-63
2022/03/26 11:39:45;;;;;;;50.58;31.42;;;;;;;;;;5096561;28;20297;-61
2022/03/26 11:42:11;;;;;;;51.78;31.50;;;;;;;;;;5112578;28;20476;-61
2022/03/26 11:44:42;;;;;;;48.53;31.37;;;;;;;;;;5112553;28;20067;-61
2022/03/26 11:53:30;;;;;;;46.20;31.88;;;;;;;;;;5069197;28;20400;-62
2022/03/26 11:55:56;;;;;;;47.30;32.28;;;;;;;25.26;nan;103256.41;5112532;28;20084;-62
2022/03/26 11:58:24;;;;;;;48.25;32.90;;;;;;;24.96;nan;103299.38;5112418;28;20503;-64
2022/03/26 12:01:02;;;;;;;51.75;32.53;;;;;;;25.17;nan;103289.25;5111390;28;20039;-63
2022/03/26 12:03:41;;;;;;;50.78;32.45;;;;;;;25.49;nan;103284.78;5111322;28;20032;-62